createdAt,value
2019-05-20T00:00:17.990Z,14.70
2019-05-20T00:05:42.372Z,14.67
2019-05-20T00:11:06.602Z,14.67
2019-05-20T00:16:31.283Z,14.66
2019-05-20T00:21:55.641Z,14.69
2019-05-20T00:27:20.597Z,14.68
2019-05-20T00:32:44.259Z,14.77
2019-05-20T00:38:08.641Z,14.72
2019-05-20T00:43:33.434Z,14.63
2019-05-20T00:48:57.555Z,14.52
2019-05-20T00:54:21.854Z,14.48
2019-05-20T00:59:46.111Z,14.53
2019-05-20T01:05:10.053Z,14.52
2019-05-20T01:10:34.219Z,14.46
2019-05-20T01:15:57.951Z,14.42
2019-05-20T01:21:22.679Z,14.43
2019-05-20T01:26:46.238Z,14.44
2019-05-20T01:32:10.919Z,14.40
2019-05-20T01:37:36.079Z,14.43
2019-05-20T01:43:01.089Z,14.40
2019-05-20T01:48:25.790Z,14.45
2019-05-20T01:53:50.104Z,14.43
2019-05-20T01:59:14.699Z,14.42
2019-05-20T02:04:39.591Z,14.33
2019-05-20T02:10:03.839Z,14.23
2019-05-20T02:15:46.072Z,14.19
2019-05-20T02:21:10.979Z,14.23
2019-05-20T02:26:36.122Z,14.18
2019-05-20T02:32:00.621Z,14.24
2019-05-20T02:37:24.336Z,14.18
2019-05-20T02:42:49.478Z,14.19
2019-05-20T02:48:13.553Z,14.17
2019-05-20T02:53:38.264Z,14.14
2019-05-20T02:59:02.624Z,14.14
2019-05-20T03:04:26.514Z,14.15
2019-05-20T03:09:51.494Z,14.14
2019-05-20T03:15:16.292Z,14.08
2019-05-20T03:20:41.296Z,14.12
2019-05-20T03:26:06.049Z,14.09
2019-05-20T03:31:29.734Z,14.06
2019-05-20T03:36:53.423Z,14.07
2019-05-20T03:42:17.399Z,14.20
2019-05-20T03:47:42.408Z,14.29
2019-05-20T03:53:06.794Z,14.39
2019-05-20T03:58:30.902Z,14.47
2019-05-20T04:03:55.447Z,14.57
2019-05-20T04:09:19.182Z,14.73
2019-05-20T04:14:43.603Z,15.08
2019-05-20T04:20:08.426Z,15.90
2019-05-20T04:25:32.580Z,16.55
2019-05-20T04:30:56.461Z,16.90
2019-05-20T04:36:20.164Z,17.20
2019-05-20T04:41:44.885Z,16.74
2019-05-20T04:47:09.727Z,16.56
2019-05-20T04:52:34.327Z,16.61
2019-05-20T04:57:58.657Z,16.37
2019-05-20T05:03:23.772Z,16.33
2019-05-20T05:08:48.606Z,16.42
2019-05-20T05:14:13.233Z,17.22
2019-05-20T05:19:37.809Z,18.00
2019-05-20T05:25:02.583Z,18.58
2019-05-20T05:30:27.068Z,18.10
2019-05-20T05:35:53.655Z,17.89
2019-05-20T05:41:18.180Z,18.60
2019-05-20T05:46:41.963Z,19.49
2019-05-20T05:52:06.600Z,19.49
2019-05-20T05:57:31.528Z,19.07
2019-05-20T06:02:56.244Z,18.52
2019-05-20T06:08:21.148Z,19.39
2019-05-20T06:13:45.114Z,20.61
2019-05-20T06:19:08.791Z,21.53
2019-05-20T06:24:32.767Z,21.87
2019-05-20T06:29:57.774Z,22.59
2019-05-20T06:35:22.553Z,23.66
2019-05-20T06:40:51.476Z,23.66
2019-05-20T06:46:15.947Z,23.46
2019-05-20T06:51:41.216Z,23.31
2019-05-20T06:57:05.802Z,23.74
2019-05-20T07:02:30.741Z,24.17
2019-05-20T07:07:54.756Z,24.23
2019-05-20T07:13:19.136Z,25.24
2019-05-20T07:18:42.941Z,26.03
2019-05-20T07:24:07.683Z,26.59
2019-05-20T07:29:31.622Z,25.80
2019-05-20T07:34:55.546Z,24.23
2019-05-20T07:40:30.582Z,25.30
2019-05-20T07:45:55.369Z,26.80
2019-05-20T07:51:20.900Z,27.40
2019-05-20T07:56:47.617Z,27.01
2019-05-20T08:02:12.430Z,26.68
2019-05-20T08:07:51.217Z,27.74
2019-05-20T08:13:02.794Z,28.19
2019-05-20T08:18:26.722Z,26.62
2019-05-20T08:23:50.618Z,27.66
2019-05-20T08:29:15.325Z,26.02
2019-05-20T08:34:39.804Z,25.70
2019-05-20T08:40:05.561Z,25.92
2019-05-20T08:45:29.730Z,25.66
2019-05-20T08:50:53.984Z,26.75
2019-05-20T08:56:18.810Z,26.71
2019-05-20T09:01:43.205Z,27.43
2019-05-20T09:07:07.740Z,28.80
2019-05-20T09:12:31.653Z,26.86
2019-05-20T09:17:55.748Z,27.80
2019-05-20T09:23:19.628Z,28.23
2019-05-20T09:28:43.599Z,28.54
2019-05-20T09:34:08.398Z,27.34
2019-05-20T09:39:32.945Z,26.54
2019-05-20T09:45:01.774Z,28.02
2019-05-20T09:50:23.362Z,27.94
2019-05-20T09:55:47.018Z,27.61
2019-05-20T10:01:11.222Z,27.93
2019-05-20T10:06:35.115Z,27.55
2019-05-20T10:11:59.784Z,27.50
2019-05-20T10:17:23.878Z,28.68
2019-05-20T10:22:48.569Z,28.44
2019-05-20T10:28:12.972Z,28.62
2019-05-20T10:33:37.490Z,29.13
2019-05-20T10:39:01.930Z,29.22
2019-05-20T10:44:27.539Z,28.42
2019-05-20T10:49:52.107Z,27.03
2019-05-20T10:55:16.574Z,26.72
2019-05-20T11:00:40.298Z,26.02
2019-05-20T11:06:05.063Z,25.58
2019-05-20T11:11:29.981Z,25.22
2019-05-20T11:16:54.378Z,25.63
2019-05-20T11:22:18.481Z,25.30
2019-05-20T11:27:43.516Z,24.98
2019-05-20T11:33:08.358Z,25.18
2019-05-20T11:38:33.286Z,25.52
2019-05-20T11:43:57.606Z,26.15
2019-05-20T11:49:21.428Z,26.41
2019-05-20T11:54:46.226Z,26.42
2019-05-20T12:00:12.033Z,26.25
2019-05-20T12:05:36.578Z,26.33
2019-05-20T12:11:00.973Z,26.06
2019-05-20T12:16:25.488Z,25.58
2019-05-20T12:21:49.900Z,25.74
2019-05-20T12:27:13.829Z,26.08
2019-05-20T12:32:38.528Z,26.47
2019-05-20T12:38:03.138Z,26.35
2019-05-20T12:43:27.959Z,26.29
2019-05-20T12:48:52.114Z,26.34
2019-05-20T12:54:16.250Z,26.33
2019-05-20T12:59:39.889Z,26.44
2019-05-20T13:05:06.002Z,26.51
2019-05-20T13:10:32.256Z,26.47
2019-05-20T13:15:56.250Z,25.94
2019-05-20T13:21:20.050Z,25.75
2019-05-20T13:26:44.844Z,25.19
2019-05-20T13:32:08.908Z,24.93
2019-05-20T13:37:33.818Z,24.68
2019-05-20T13:42:57.735Z,24.48
2019-05-20T13:48:22.422Z,24.08
2019-05-20T13:53:46.940Z,23.82
2019-05-20T13:59:11.847Z,23.52
2019-05-20T14:04:36.549Z,23.33
2019-05-20T14:10:01.454Z,22.90
2019-05-20T14:15:26.821Z,22.47
2019-05-20T14:20:50.407Z,22.10
2019-05-20T14:26:14.952Z,21.95
2019-05-20T14:31:39.272Z,21.78
2019-05-20T14:37:03.098Z,21.67
2019-05-20T14:42:26.733Z,21.12
2019-05-20T14:47:51.388Z,20.44
2019-05-20T14:53:15.231Z,19.94
2019-05-20T14:58:38.793Z,19.45
2019-05-20T15:04:03.399Z,18.96
2019-05-20T15:09:27.338Z,18.76
2019-05-20T15:14:51.117Z,18.63
2019-05-20T15:20:15.514Z,18.36
2019-05-20T15:25:39.379Z,17.94
2019-05-20T15:31:04.056Z,17.78
2019-05-20T15:36:28.729Z,17.58
2019-05-20T15:41:53.109Z,16.25
2019-05-20T15:47:18.890Z,15.92
2019-05-20T15:52:44.270Z,15.85
2019-05-20T15:58:07.866Z,15.86
2019-05-20T16:03:31.966Z,16.23
2019-05-20T16:08:57.093Z,16.52
2019-05-20T16:14:22.020Z,16.69
2019-05-20T16:19:47.136Z,16.98
2019-05-20T16:25:12.037Z,17.66
2019-05-20T16:30:36.564Z,18.66
2019-05-20T16:36:01.048Z,18.34
2019-05-20T16:41:24.973Z,18.28
2019-05-20T16:46:48.646Z,18.57
2019-05-20T16:52:12.890Z,18.94
2019-05-20T16:57:37.742Z,19.36
2019-05-20T17:03:02.481Z,19.34
2019-05-20T17:08:26.462Z,19.59
2019-05-20T17:13:51.565Z,19.18
2019-05-20T17:19:16.475Z,19.03
2019-05-20T17:24:41.194Z,18.92
2019-05-20T17:30:06.421Z,18.74
2019-05-20T17:35:30.990Z,18.58
2019-05-20T17:40:55.119Z,18.46
2019-05-20T17:46:19.225Z,18.42
2019-05-20T17:51:44.208Z,18.35
2019-05-20T17:57:08.966Z,18.13
2019-05-20T18:02:34.075Z,18.09
2019-05-20T18:22:11.808Z,18.09
2019-05-20T18:27:35.680Z,18.09
2019-05-20T18:32:59.516Z,17.64
2019-05-20T18:38:23.565Z,17.65
2019-05-20T18:43:48.301Z,17.59
2019-05-20T18:49:12.742Z,17.55
2019-05-20T18:54:36.529Z,17.49
2019-05-20T19:00:01.106Z,17.47
2019-05-20T19:05:25.923Z,17.44
2019-05-20T19:10:49.516Z,17.34
2019-05-20T19:16:13.745Z,17.11
2019-05-20T19:21:38.297Z,16.89
2019-05-20T19:27:04.737Z,16.72
2019-05-20T19:32:29.627Z,16.53
2019-05-20T19:37:54.054Z,16.36
2019-05-20T19:43:17.847Z,16.28
2019-05-20T19:48:41.465Z,16.18
2019-05-20T19:54:05.649Z,16.11
2019-05-20T19:59:30.319Z,16.00
2019-05-20T20:04:56.126Z,15.97
2019-05-20T20:10:20.497Z,15.89
2019-05-20T20:15:44.476Z,15.86
2019-05-20T20:21:09.204Z,15.83
2019-05-20T20:26:34.340Z,15.77
2019-05-20T20:31:58.852Z,15.76
2019-05-20T20:37:23.919Z,15.72
2019-05-20T20:42:49.062Z,15.61
2019-05-20T20:48:13.492Z,15.53
2019-05-20T20:53:37.420Z,15.48
2019-05-20T20:59:02.126Z,15.39
2019-05-20T21:04:26.438Z,15.24
2019-05-20T21:09:51.066Z,15.11
2019-05-20T21:15:15.008Z,14.98
2019-05-20T21:20:39.380Z,14.89
2019-05-20T21:26:04.151Z,14.86
2019-05-20T21:31:28.654Z,14.81
2019-05-20T21:36:53.016Z,14.64
2019-05-20T21:42:18.268Z,14.51
2019-05-20T21:47:44.820Z,14.42
2019-05-20T21:53:09.606Z,14.40
2019-05-20T21:58:34.142Z,14.36
2019-05-20T22:03:58.138Z,14.27
2019-05-20T22:09:22.471Z,14.29
2019-05-20T22:14:47.229Z,14.11
2019-05-20T22:20:11.770Z,13.98
2019-05-20T22:25:37.285Z,13.77
2019-05-20T22:31:02.228Z,13.63
2019-05-20T22:36:26.252Z,13.64
2019-05-20T22:41:51.113Z,13.62
2019-05-20T22:47:16.042Z,13.46
2019-05-20T22:52:40.153Z,13.24
2019-05-20T22:58:04.875Z,13.12
2019-05-20T23:03:29.601Z,13.03
2019-05-20T23:08:54.630Z,13.02
2019-05-20T23:14:19.560Z,12.96
2019-05-20T23:19:44.263Z,12.87
2019-05-20T23:25:07.831Z,12.78
2019-05-20T23:30:32.399Z,12.74
2019-05-20T23:35:56.383Z,12.75
2019-05-20T23:41:21.089Z,12.74
2019-05-20T23:46:45.762Z,12.80
2019-05-20T23:52:09.684Z,12.84
2019-05-20T23:57:33.435Z,12.85
